createdAt,value
2019-05-06T00:00:27.237Z,100433.00
2019-05-06T00:02:56.706Z,100429.00
2019-05-06T00:05:26.302Z,100438.00
2019-05-06T00:07:55.738Z,100431.00
2019-05-06T00:10:35.282Z,100441.00
2019-05-06T00:13:04.870Z,100436.00
2019-05-06T00:15:34.605Z,100438.00
2019-05-06T00:18:04.763Z,100442.00
2019-05-06T00:20:35.207Z,100436.00
2019-05-06T00:23:14.117Z,100435.00
2019-05-06T00:25:44.912Z,100425.00
2019-05-06T00:28:21.714Z,100437.00
2019-05-06T00:30:58.557Z,100433.00
2019-05-06T00:33:24.324Z,100433.00
2019-05-06T00:35:53.904Z,100431.00
2019-05-06T00:38:24.606Z,100428.00
2019-05-06T00:40:58.964Z,100423.00
2019-05-06T00:43:28.388Z,100426.00
2019-05-06T00:45:57.852Z,100436.00
2019-05-06T00:48:27.357Z,100434.00
2019-05-06T00:50:56.796Z,100430.00
2019-05-06T00:53:30.800Z,100429.00
2019-05-06T00:56:00.226Z,100434.00
2019-05-06T00:58:29.729Z,100426.00
2019-05-06T01:00:59.464Z,100428.00
2019-05-06T01:03:28.921Z,100423.00
2019-05-06T01:05:58.746Z,100417.00
2019-05-06T01:08:28.224Z,100438.00
2019-05-06T01:10:57.679Z,100430.00
2019-05-06T01:13:37.719Z,100427.00
2019-05-06T01:16:08.100Z,100435.00
2019-05-06T01:18:37.606Z,100431.00
2019-05-06T01:21:10.103Z,100435.00
2019-05-06T01:23:43.941Z,100442.00
2019-05-06T01:26:15.467Z,100441.00
2019-05-06T01:28:46.024Z,100449.00
2019-05-06T01:31:16.019Z,100439.00
2019-05-06T01:33:45.549Z,100445.00
2019-05-06T01:36:15.017Z,100449.00
2019-05-06T01:38:49.672Z,100439.00
2019-05-06T01:41:29.933Z,100444.00
2019-05-06T01:43:59.383Z,100437.00
2019-05-06T01:46:28.855Z,100434.00
2019-05-06T01:48:58.281Z,100439.00
2019-05-06T01:51:27.765Z,100446.00
2019-05-06T01:53:57.183Z,100436.00
2019-05-06T01:56:26.614Z,100438.00
2019-05-06T01:58:56.092Z,100442.00
2019-05-06T02:01:26.389Z,100452.00
2019-05-06T02:03:55.818Z,100449.00
2019-05-06T02:06:25.711Z,100447.00
2019-05-06T02:08:55.163Z,100443.00
2019-05-06T02:11:24.850Z,100437.00
2019-05-06T02:13:54.325Z,100444.00
2019-05-06T02:16:24.162Z,100445.00
2019-05-06T02:18:54.117Z,100446.00
2019-05-06T02:21:28.163Z,100444.00
2019-05-06T02:24:17.602Z,100449.00
2019-05-06T02:26:47.019Z,100448.00
2019-05-06T02:29:18.130Z,100442.00
2019-05-06T02:31:49.213Z,100448.00
2019-05-06T02:34:20.356Z,100446.00
2019-05-06T02:37:07.824Z,100456.00
2019-05-06T02:39:37.316Z,100457.00
2019-05-06T02:42:08.396Z,100450.00
2019-05-06T02:44:37.851Z,100447.00
2019-05-06T02:47:13.740Z,100447.00
2019-05-06T02:49:53.593Z,100451.00
2019-05-06T02:52:23.167Z,100441.00
2019-05-06T02:54:53.736Z,100440.00
2019-05-06T02:57:23.927Z,100445.00
2019-05-06T02:59:55.271Z,100445.00
2019-05-06T03:02:38.702Z,100452.00
2019-05-06T03:04:56.014Z,100456.00
2019-05-06T03:07:25.504Z,100445.00
2019-05-06T03:09:54.917Z,100443.00
2019-05-06T03:12:24.337Z,100443.00
2019-05-06T03:14:53.811Z,100457.00
2019-05-06T03:17:23.734Z,100444.00
2019-05-06T03:19:55.106Z,100453.00
2019-05-06T03:22:35.508Z,100450.00
2019-05-06T03:25:13.368Z,100455.00
2019-05-06T03:27:43.863Z,100454.00
2019-05-06T03:30:16.398Z,100453.00
2019-05-06T03:33:18.692Z,100458.00
2019-05-06T03:35:33.188Z,100457.00
2019-05-06T03:37:47.829Z,100457.00
2019-05-06T03:40:17.305Z,100462.00
2019-05-06T03:42:46.757Z,100463.00
2019-05-06T03:45:34.183Z,100467.00
2019-05-06T03:48:05.919Z,100470.00
2019-05-06T03:50:35.873Z,100462.00
2019-05-06T03:53:06.795Z,100463.00
2019-05-06T03:55:37.834Z,100465.00
2019-05-06T03:58:08.047Z,100470.00
2019-05-06T04:00:37.885Z,100462.00
2019-05-06T04:03:07.281Z,100466.00
2019-05-06T04:05:38.238Z,100465.00
2019-05-06T04:08:08.112Z,100465.00
2019-05-06T04:10:38.054Z,100467.00
2019-05-06T04:13:13.276Z,100464.00
2019-05-06T04:16:03.576Z,100463.00
2019-05-06T04:18:33.705Z,100461.00
2019-05-06T04:21:23.712Z,100463.00
2019-05-06T04:23:59.598Z,100462.00
2019-05-06T04:26:36.745Z,100470.00
2019-05-06T04:29:06.209Z,100472.00
2019-05-06T04:31:35.684Z,100483.00
2019-05-06T04:34:13.837Z,100470.00
2019-05-06T04:36:37.006Z,100470.00
2019-05-06T04:39:07.679Z,100476.00
2019-05-06T04:41:37.453Z,100474.00
2019-05-06T04:44:06.903Z,100485.00
2019-05-06T04:46:36.345Z,100476.00
2019-05-06T04:49:10.356Z,100481.00
2019-05-06T04:51:56.956Z,100488.00
2019-05-06T04:54:27.101Z,100481.00
2019-05-06T04:56:56.764Z,100475.00
2019-05-06T04:59:26.212Z,100480.00
2019-05-06T05:01:55.686Z,100475.00
2019-05-06T05:04:32.295Z,100476.00
2019-05-06T05:06:56.665Z,100468.00
2019-05-06T05:09:26.281Z,100471.00
2019-05-06T05:12:02.477Z,100473.00
2019-05-06T05:14:42.534Z,100466.00
2019-05-06T05:17:22.333Z,100462.00
2019-05-06T05:19:52.345Z,100481.00
2019-05-06T05:22:22.056Z,100481.00
2019-05-06T05:24:52.232Z,100481.00
2019-05-06T05:27:22.057Z,100476.00
2019-05-06T05:29:52.333Z,100484.00
2019-05-06T05:32:22.591Z,100478.00
2019-05-06T05:34:52.389Z,100479.00
2019-05-06T05:37:22.760Z,100481.00
2019-05-06T05:39:52.360Z,100487.00
2019-05-06T05:42:23.518Z,100487.00
2019-05-06T05:44:54.109Z,100486.00
2019-05-06T05:47:23.551Z,100484.00
2019-05-06T05:50:06.890Z,100481.00
2019-05-06T05:52:36.304Z,100484.00
2019-05-06T05:55:07.066Z,100492.00
2019-05-06T05:57:36.678Z,100485.00
2019-05-06T06:00:07.410Z,100488.00
2019-05-06T06:02:36.887Z,100484.00
2019-05-06T06:05:08.143Z,100485.00
2019-05-06T06:07:37.978Z,100486.00
2019-05-06T06:10:15.999Z,100479.00
2019-05-06T06:12:45.550Z,100481.00
2019-05-06T06:15:32.927Z,100484.00
2019-05-06T06:18:15.980Z,100487.00
2019-05-06T06:20:49.935Z,100481.00
2019-05-06T06:23:22.975Z,100492.00
2019-05-06T06:25:52.981Z,100487.00
2019-05-06T06:28:25.088Z,100486.00
2019-05-06T06:30:59.084Z,100475.00
2019-05-06T06:33:28.550Z,100466.00
2019-05-06T06:36:05.197Z,100479.00
2019-05-06T06:38:52.826Z,100469.00
2019-05-06T06:41:22.981Z,100462.00
2019-05-06T06:43:54.388Z,100461.00
2019-05-06T06:46:23.878Z,100465.00
2019-05-06T06:48:53.811Z,100465.00
2019-05-06T06:51:23.541Z,100473.00
2019-05-06T06:53:53.124Z,100463.00
2019-05-06T06:56:24.506Z,100463.00
2019-05-06T06:59:02.562Z,100465.00
2019-05-06T07:01:34.631Z,100466.00
2019-05-06T07:04:10.510Z,100447.00
2019-05-06T07:06:48.239Z,100454.00
2019-05-06T07:09:17.685Z,100451.00
2019-05-06T07:11:47.265Z,100450.00
2019-05-06T07:14:16.911Z,100452.00
2019-05-06T07:16:46.334Z,100454.00
2019-05-06T07:19:17.576Z,100448.00
2019-05-06T07:21:57.433Z,100441.00
2019-05-06T07:24:27.024Z,100438.00
2019-05-06T07:27:02.899Z,100438.00
2019-05-06T07:29:32.764Z,100444.00
2019-05-06T07:32:02.763Z,100434.00
2019-05-06T07:34:32.326Z,100436.00
2019-05-06T07:37:03.449Z,100439.00
2019-05-06T07:39:33.450Z,100432.00
2019-05-06T07:42:04.504Z,100435.00
2019-05-06T07:44:47.449Z,100436.00
2019-05-06T07:47:18.540Z,100436.00
2019-05-06T07:49:48.001Z,100438.00
2019-05-06T07:52:17.627Z,100442.00
2019-05-06T07:54:47.380Z,100438.00
2019-05-06T07:57:16.925Z,100442.00
2019-05-06T07:59:46.432Z,100439.00
2019-05-06T08:02:15.985Z,100443.00
2019-05-06T08:04:45.445Z,100437.00
2019-05-06T08:07:14.878Z,100440.00
2019-05-06T08:09:44.396Z,100441.00
2019-05-06T08:12:13.903Z,100444.00
2019-05-06T08:14:43.599Z,100431.00
2019-05-06T08:17:23.057Z,100438.00
2019-05-06T08:19:53.022Z,100435.00
2019-05-06T08:22:42.246Z,100424.00
2019-05-06T08:25:12.228Z,100428.00
2019-05-06T08:27:42.555Z,100428.00
2019-05-06T08:30:13.511Z,100442.00
2019-05-06T08:32:43.035Z,100436.00
2019-05-06T08:35:14.777Z,100446.00
2019-05-06T08:37:45.265Z,100441.00
2019-05-06T08:40:15.403Z,100443.00
2019-05-06T08:42:44.891Z,100450.00
2019-05-06T08:45:14.778Z,100446.00
2019-05-06T08:47:44.227Z,100451.00
2019-05-06T08:50:21.830Z,100441.00
2019-05-06T08:53:07.966Z,100439.00
2019-05-06T08:55:39.083Z,100449.00
2019-05-06T08:58:08.846Z,100445.00
2019-05-06T09:00:42.767Z,100448.00
2019-05-06T09:03:14.160Z,100454.00
2019-05-06T09:05:44.434Z,100451.00
2019-05-06T09:08:13.885Z,100445.00
2019-05-06T09:10:43.354Z,100443.00
2019-05-06T09:13:12.864Z,100445.00
2019-05-06T09:15:42.866Z,100441.00
2019-05-06T09:18:12.529Z,100442.00
2019-05-06T09:20:43.204Z,100437.00
2019-05-06T09:23:12.881Z,100442.00
2019-05-06T09:25:42.578Z,100435.00
2019-05-06T09:28:29.630Z,100436.00
2019-05-06T09:31:02.168Z,100433.00
2019-05-06T09:33:33.470Z,100435.00
2019-05-06T09:36:03.458Z,100431.00
2019-05-06T09:38:33.091Z,100438.00
2019-05-06T09:41:05.011Z,100439.00
2019-05-06T09:43:33.702Z,100436.00
2019-05-06T09:46:03.156Z,100443.00
2019-05-06T09:48:52.606Z,100441.00
2019-05-06T09:51:22.107Z,100441.00
2019-05-06T09:54:04.045Z,100445.00
2019-05-06T09:56:37.739Z,100453.00
2019-05-06T09:59:07.257Z,100459.00
2019-05-06T10:01:36.704Z,100461.00
2019-05-06T10:04:09.129Z,100460.00
2019-05-06T10:06:38.930Z,100458.00
2019-05-06T10:09:15.922Z,100450.00
2019-05-06T10:11:44.290Z,100464.00
2019-05-06T10:14:13.823Z,100456.00
2019-05-06T10:16:43.324Z,100459.00
2019-05-06T10:19:13.375Z,100459.00
2019-05-06T10:21:42.999Z,100461.00
2019-05-06T10:24:12.504Z,100456.00
2019-05-06T10:26:43.592Z,100459.00
2019-05-06T10:29:23.565Z,100461.00
2019-05-06T10:31:54.727Z,100456.00
2019-05-06T10:34:24.180Z,100449.00
2019-05-06T10:37:19.266Z,100458.00
2019-05-06T10:40:03.389Z,100466.00
2019-05-06T10:43:13.096Z,100461.00
2019-05-06T10:45:42.773Z,100459.00
2019-05-06T10:48:12.900Z,100472.00
2019-05-06T10:50:44.218Z,100470.00
2019-05-06T10:53:15.311Z,100466.00
2019-05-06T10:55:49.520Z,100454.00
2019-05-06T10:58:19.128Z,100453.00
2019-05-06T11:00:52.873Z,100457.00
2019-05-06T11:03:23.439Z,100456.00
2019-05-06T11:05:53.658Z,100455.00
2019-05-06T11:08:23.171Z,100454.00
2019-05-06T11:10:53.483Z,100450.00
2019-05-06T11:13:24.469Z,100447.00
2019-05-06T11:15:55.648Z,100442.00
2019-05-06T11:18:26.957Z,100448.00
2019-05-06T11:20:56.573Z,100449.00
2019-05-06T11:23:26.371Z,100451.00
2019-05-06T11:25:55.845Z,100443.00
2019-05-06T11:28:43.245Z,100434.00
2019-05-06T11:31:32.980Z,100429.00
2019-05-06T11:34:03.900Z,100431.00
2019-05-06T11:36:42.609Z,100433.00
2019-05-06T11:39:14.254Z,100427.00
2019-05-06T11:41:59.612Z,100417.00
2019-05-06T11:44:14.929Z,100412.00
2019-05-06T11:46:44.379Z,100407.00
2019-05-06T11:49:13.831Z,100413.00
2019-05-06T11:51:43.710Z,100412.00
2019-05-06T11:54:18.603Z,100408.00
2019-05-06T11:56:50.700Z,100406.00
2019-05-06T11:59:17.233Z,100415.00
2019-05-06T12:01:48.323Z,100416.00
2019-05-06T12:04:17.766Z,100427.00
2019-05-06T12:06:47.246Z,100423.00
2019-05-06T12:09:17.330Z,100429.00
2019-05-06T12:11:46.901Z,100421.00
2019-05-06T12:14:16.367Z,100417.00
2019-05-06T12:16:45.862Z,100416.00
2019-05-06T12:19:15.315Z,100410.00
2019-05-06T12:22:04.219Z,100411.00
2019-05-06T12:24:33.739Z,100428.00
2019-05-06T12:27:03.472Z,100428.00
2019-05-06T12:29:32.998Z,100419.00
2019-05-06T12:32:04.137Z,100414.00
2019-05-06T12:34:33.563Z,100406.00
2019-05-06T12:37:04.742Z,100415.00
2019-05-06T12:39:34.254Z,100414.00
2019-05-06T12:42:05.332Z,100426.00
2019-05-06T12:44:36.434Z,100417.00
2019-05-06T12:47:07.527Z,100415.00
2019-05-06T12:49:38.651Z,100411.00
2019-05-06T12:52:08.161Z,100406.00
2019-05-06T12:54:37.576Z,100394.00
2019-05-06T12:57:07.075Z,100399.00
2019-05-06T12:59:36.531Z,100402.00
2019-05-06T13:02:06.141Z,100405.00
2019-05-06T13:04:50.315Z,100396.00
2019-05-06T13:07:08.441Z,100414.00
2019-05-06T13:09:37.872Z,100394.00
2019-05-06T13:12:09.181Z,100398.00
2019-05-06T13:14:38.630Z,100407.00
2019-05-06T13:17:09.702Z,100416.00
2019-05-06T13:19:39.226Z,100414.00
2019-05-06T13:22:13.313Z,100410.00
2019-05-06T13:24:41.514Z,100417.00
2019-05-06T13:27:12.740Z,100414.00
2019-05-06T13:29:42.870Z,100403.00
2019-05-06T13:32:14.127Z,100413.00
2019-05-06T13:34:43.560Z,100403.00
2019-05-06T13:37:13.115Z,100406.00
2019-05-06T13:39:43.665Z,100413.00
2019-05-06T13:42:14.912Z,100414.00
2019-05-06T13:44:44.386Z,100428.00
2019-05-06T13:47:15.541Z,100436.00
2019-05-06T13:49:49.322Z,100424.00
2019-05-06T13:52:22.799Z,100428.00
2019-05-06T13:54:52.942Z,100434.00
2019-05-06T13:57:22.634Z,100429.00
2019-05-06T13:59:53.276Z,100422.00
2019-05-06T14:02:30.762Z,100430.00
2019-05-06T14:05:02.731Z,100429.00
2019-05-06T14:07:34.462Z,100422.00
2019-05-06T14:10:02.819Z,100433.00
2019-05-06T14:12:33.208Z,100436.00
2019-05-06T14:15:04.374Z,100436.00
2019-05-06T14:17:34.057Z,100432.00
2019-05-06T14:20:04.081Z,100429.00
2019-05-06T14:22:33.528Z,100438.00
2019-05-06T14:25:12.709Z,100430.00
2019-05-06T14:27:43.267Z,100425.00
2019-05-06T14:30:32.107Z,100430.00
2019-05-06T14:33:03.125Z,100434.00
2019-05-06T14:35:32.591Z,100429.00
2019-05-06T14:38:03.318Z,100428.00
2019-05-06T14:40:34.618Z,100428.00
2019-05-06T14:43:05.196Z,100421.00
2019-05-06T14:45:34.906Z,100426.00
2019-05-06T14:48:04.354Z,100432.00
2019-05-06T14:50:45.175Z,100425.00
2019-05-06T14:53:05.060Z,100416.00
2019-05-06T14:55:36.319Z,100420.00
2019-05-06T14:58:05.766Z,100411.00
2019-05-06T15:00:35.232Z,100412.00
2019-05-06T15:03:04.711Z,100412.00
2019-05-06T15:05:36.226Z,100404.00
2019-05-06T15:08:05.342Z,100416.00
2019-05-06T15:10:34.786Z,100417.00
2019-05-06T15:13:04.220Z,100415.00
2019-05-06T15:15:34.751Z,100418.00
2019-05-06T15:18:04.276Z,100421.00
2019-05-06T15:20:34.297Z,100414.00
2019-05-06T15:23:04.526Z,100424.00
2019-05-06T15:25:34.072Z,100422.00
2019-05-06T15:28:03.539Z,100420.00
2019-05-06T15:30:37.373Z,100418.00
2019-05-06T15:33:08.465Z,100419.00
2019-05-06T15:35:45.484Z,100418.00
2019-05-06T15:38:16.555Z,100423.00
2019-05-06T15:40:46.017Z,100426.00
2019-05-06T15:43:15.490Z,100426.00
2019-05-06T15:45:44.919Z,100425.00
2019-05-06T15:48:14.603Z,100422.00
2019-05-06T15:50:45.965Z,100426.00
2019-05-06T15:53:15.224Z,100430.00
2019-05-06T15:55:44.773Z,100422.00
2019-05-06T15:58:14.406Z,100439.00
2019-05-06T16:00:44.005Z,100428.00
2019-05-06T16:03:13.475Z,100425.00
2019-05-06T16:05:43.687Z,100426.00
2019-05-06T16:08:13.359Z,100425.00
2019-05-06T16:10:52.055Z,100427.00
2019-05-06T16:13:13.986Z,100428.00
2019-05-06T16:15:43.770Z,100428.00
2019-05-06T16:18:13.221Z,100430.00
2019-05-06T16:20:42.713Z,100430.00
2019-05-06T16:23:19.776Z,100431.00
2019-05-06T16:25:49.270Z,100429.00
2019-05-06T16:28:18.715Z,100437.00
2019-05-06T16:30:48.163Z,100431.00
2019-05-06T16:33:19.044Z,100436.00
2019-05-06T16:35:48.783Z,100442.00
2019-05-06T16:38:18.233Z,100433.00
2019-05-06T16:40:47.710Z,100438.00
2019-05-06T16:43:18.733Z,100439.00
2019-05-06T16:45:48.184Z,100448.00
2019-05-06T16:48:17.676Z,100443.00
2019-05-06T16:50:47.104Z,100447.00
2019-05-06T16:53:16.566Z,100444.00
2019-05-06T16:55:55.453Z,100438.00
2019-05-06T16:58:26.077Z,100454.00
2019-05-06T17:00:55.524Z,100452.00
2019-05-06T17:03:26.631Z,100463.00
2019-05-06T17:06:06.897Z,100463.00
2019-05-06T17:08:36.797Z,100459.00
2019-05-06T17:11:06.376Z,100462.00
2019-05-06T17:13:37.891Z,100467.00
2019-05-06T17:16:07.715Z,100472.00
2019-05-06T17:18:37.140Z,100465.00
2019-05-06T17:21:08.718Z,100471.00
2019-05-06T17:23:38.204Z,100475.00
2019-05-06T17:26:07.635Z,100477.00
2019-05-06T17:28:44.518Z,100478.00
2019-05-06T17:31:15.618Z,100477.00
2019-05-06T17:33:46.724Z,100480.00
2019-05-06T17:36:20.655Z,100479.00
2019-05-06T17:38:57.072Z,100482.00
2019-05-06T17:41:41.020Z,100490.00
2019-05-06T17:43:58.029Z,100483.00
2019-05-06T17:46:44.133Z,100487.00
2019-05-06T17:49:15.221Z,100492.00
2019-05-06T17:51:49.282Z,100489.00
2019-05-06T17:54:18.817Z,100500.00
2019-05-06T17:56:48.271Z,100500.00
2019-05-06T17:59:17.726Z,100508.00
2019-05-06T18:01:48.845Z,100510.00
2019-05-06T18:04:19.286Z,100507.00
2019-05-06T18:06:49.054Z,100517.00
2019-05-06T18:09:18.644Z,100506.00
2019-05-06T18:11:58.276Z,100502.00
2019-05-06T18:14:19.275Z,100511.00
2019-05-06T18:16:48.851Z,100524.00
2019-05-06T18:19:18.275Z,100521.00
2019-05-06T18:21:47.775Z,100524.00
2019-05-06T18:24:17.231Z,100525.00
2019-05-06T18:26:46.683Z,100530.00
2019-05-06T18:29:16.134Z,100530.00
2019-05-06T18:31:45.618Z,100536.00
2019-05-06T18:34:15.053Z,100538.00
2019-05-06T18:36:44.577Z,100543.00
2019-05-06T18:39:14.024Z,100540.00
2019-05-06T18:41:43.527Z,100550.00
2019-05-06T18:44:12.941Z,100550.00
2019-05-06T18:46:42.265Z,100553.00
2019-05-06T18:49:13.005Z,100557.00
2019-05-06T18:51:42.916Z,100561.00
2019-05-06T18:54:12.597Z,100556.00
2019-05-06T18:56:42.998Z,100564.00
2019-05-06T18:59:12.669Z,100572.00
2019-05-06T19:01:43.396Z,100577.00
2019-05-06T19:04:14.588Z,100581.00
2019-05-06T19:06:44.085Z,100589.00
2019-05-06T19:09:18.396Z,100593.00
2019-05-06T19:11:48.212Z,100594.00
2019-05-06T19:14:17.669Z,100590.00
2019-05-06T19:16:51.798Z,100602.00
2019-05-06T19:19:18.455Z,100603.00
2019-05-06T19:21:47.918Z,100606.00
2019-05-06T19:24:17.400Z,100605.00
2019-05-06T19:26:46.858Z,100614.00
2019-05-06T19:29:16.314Z,100612.00
2019-05-06T19:31:45.902Z,100603.00
2019-05-06T19:34:15.451Z,100612.00
2019-05-06T19:36:44.906Z,100611.00
2019-05-06T19:39:14.337Z,100617.00
2019-05-06T19:41:43.810Z,100608.00
2019-05-06T19:44:13.252Z,100615.00
2019-05-06T19:46:42.667Z,100612.00
2019-05-06T19:49:12.121Z,100605.00
2019-05-06T19:51:42.840Z,100608.00
2019-05-06T19:54:12.706Z,100611.00
2019-05-06T19:56:42.456Z,100610.00
2019-05-06T19:59:13.517Z,100611.00
2019-05-06T20:01:43.099Z,100610.00
2019-05-06T20:04:13.253Z,100607.00
2019-05-06T20:07:02.566Z,100609.00
2019-05-06T20:09:33.509Z,100612.00
2019-05-06T20:12:20.584Z,100610.00
2019-05-06T20:14:52.365Z,100616.00
2019-05-06T20:17:22.329Z,100620.00
2019-05-06T20:19:52.004Z,100604.00
2019-05-06T20:22:23.054Z,100609.00
2019-05-06T20:24:52.573Z,100609.00
2019-05-06T20:27:22.022Z,100615.00
2019-05-06T20:29:52.290Z,100617.00
2019-05-06T20:32:22.654Z,100605.00
2019-05-06T20:34:52.468Z,100609.00
2019-05-06T20:37:22.295Z,100611.00
2019-05-06T20:39:51.776Z,100612.00
2019-05-06T20:42:22.244Z,100613.00
2019-05-06T20:44:52.454Z,100612.00
2019-05-06T20:47:22.046Z,100616.00
2019-05-06T20:49:52.589Z,100618.00
2019-05-06T20:52:23.041Z,100617.00
2019-05-06T20:54:52.659Z,100619.00
2019-05-06T20:57:23.086Z,100624.00
2019-05-06T20:59:52.719Z,100618.00
2019-05-06T21:02:25.625Z,100619.00
2019-05-06T21:04:53.686Z,100613.00
2019-05-06T21:07:23.243Z,100617.00
2019-05-06T21:09:52.680Z,100609.00
2019-05-06T21:12:22.102Z,100610.00
2019-05-06T21:14:51.551Z,100614.00
2019-05-06T21:17:22.870Z,100614.00
2019-05-06T21:19:52.507Z,100614.00
2019-05-06T21:22:21.958Z,100622.00
2019-05-06T21:24:51.402Z,100619.00
2019-05-06T21:27:23.019Z,100613.00
2019-05-06T21:29:55.592Z,100617.00
2019-05-06T21:32:25.034Z,100607.00
2019-05-06T21:34:59.295Z,100609.00
2019-05-06T21:37:28.766Z,100623.00
2019-05-06T21:39:58.189Z,100619.00
2019-05-06T21:42:27.691Z,100617.00
2019-05-06T21:44:57.153Z,100611.00
2019-05-06T21:47:26.600Z,100609.00
2019-05-06T21:49:56.049Z,100611.00
2019-05-06T21:52:36.658Z,100607.00
2019-05-06T21:54:56.690Z,100609.00
2019-05-06T21:57:26.157Z,100617.00
2019-05-06T21:59:55.596Z,100612.00
2019-05-06T22:02:25.052Z,100601.00
2019-05-06T22:04:55.583Z,100603.00
2019-05-06T22:07:25.221Z,100608.00
2019-05-06T22:09:54.640Z,100608.00
2019-05-06T22:12:24.573Z,100601.00
2019-05-06T22:14:54.379Z,100597.00
2019-05-06T22:17:23.856Z,100593.00
2019-05-06T22:19:53.279Z,100590.00
2019-05-06T22:22:27.322Z,100595.00
2019-05-06T22:24:58.065Z,100586.00
2019-05-06T22:27:29.077Z,100586.00
2019-05-06T22:29:58.511Z,100587.00
2019-05-06T22:32:27.992Z,100590.00
2019-05-06T22:34:57.503Z,100588.00
2019-05-06T22:37:26.953Z,100591.00
2019-05-06T22:39:56.394Z,100592.00
2019-05-06T22:42:25.868Z,100583.00
2019-05-06T22:44:55.312Z,100586.00
2019-05-06T22:47:24.788Z,100592.00
2019-05-06T22:49:54.463Z,100592.00
2019-05-06T22:52:24.019Z,100597.00
2019-05-06T22:54:53.460Z,100591.00
2019-05-06T22:57:23.492Z,100588.00
2019-05-06T22:59:53.772Z,100589.00
2019-05-06T23:02:27.608Z,100590.00
2019-05-06T23:04:58.689Z,100597.00
2019-05-06T23:07:28.190Z,100589.00
2019-05-06T23:09:57.639Z,100592.00
2019-05-06T23:12:27.120Z,100592.00
2019-05-06T23:14:56.596Z,100595.00
2019-05-06T23:17:26.056Z,100592.00
2019-05-06T23:19:55.540Z,100594.00
2019-05-06T23:22:24.985Z,100598.00
2019-05-06T23:24:54.464Z,100602.00
2019-05-06T23:27:23.913Z,100595.00
2019-05-06T23:29:53.400Z,100602.00
2019-05-06T23:32:23.030Z,100605.00
2019-05-06T23:34:52.582Z,100599.00
2019-05-06T23:37:22.521Z,100603.00
2019-05-06T23:40:46.454Z,100598.00
2019-05-06T23:44:12.521Z,100604.00
2019-05-06T23:47:37.015Z,100601.00
2019-05-06T23:51:01.608Z,100598.00
2019-05-06T23:54:25.847Z,100601.00
2019-05-06T23:56:53.672Z,100605.00
2019-05-06T23:59:23.179Z,100599.00
